Saint George, GA (31562)

12:49 AM EDT on October 02, 2014 (GMT -0400)
Two Forks Ranch - St Mary's River | Change Station
CLOSE
Current Station
Personal Weather Station
Location: Hilliard, FL
Elevation: 66 ft
Nearby Weather Stations
Active Advisory: Flood Warning

Elev 66 ft 30.52 °N, 82.01 °W | Updated 3 minutes ago

Mostly Cloudy
Mostly Cloudy
69.8 °F
Feels Like 69.8 °F
N
0.0
Wind Variable Wind from ESE

Today
High -- | Low -- °F
--% Chance of Precip.
Yesterday
High -- | Low -- °F
Precip. -- in
7:22 AM 7:12 PM
First Quarter, 54% visible
Pressure 29.89 in
Visibility 10.0 miles
Clouds Few 4800 ft
Mostly Cloudy 6500 ft
Overcast 25000 ft
Dew Point 70 °F
Humidity 99%
Rainfall 0.00 in
Snow Depth Not available.
UV 0 out of 12
Pollen 6.70 out of 12
Air Quality Not available.
Flu Activity Not available.
METAR KJAX 010456Z 00000KT 10SM FEW048 BKN065 OVC250 22/21 A2989 RMK AO2 SLP122 T02170211 402500211

More Conditions Fewer Conditions

Pressure 29.89 in
Visibility 10.0 miles
Clouds Few 4800 ft
Mostly Cloudy 6500 ft
Overcast 25000 ft
Dew Point 70 °F
Humidity 99%
Rainfall 0.00 in
Snow Depth Not available.
UV 0 out of 12
Pollen 6.70 out of 12
Air Quality Not available.
Flu Activity Not available.
METAR KJAX 010456Z 00000KT 10SM FEW048 BKN065 OVC250 22/21 A2989 RMK AO2 SLP122 T02170211 402500211

More Conditions Fewer Conditions

10-Day Weather Forecast

Almanac

Astronomy

Oct. 02, 2014 Rise Set
Actual Time 7:22 AM EDT 7:12 PM EDT
Civil Twilight 6:58 AM EDT 7:36 PM EDT
Nautical Twilight 6:30 AM EDT 8:04 PM EDT
Astronomical Twilight 6:02 AM EDT 8:31 PM EDT
Moon 2:56 PM EDT 1:00 AM EDT
Length of Visible Light 12h 37m
Length of Day
11h 49m
Tomorrow will be 1m 50s shorter.
First Quarter, 54% of the Moon is Illuminated
Today
First Quarter
Oct 8
Full
Oct 15
Last Quarter
Oct 23
New
Oct 30
First Quarter

Today's Extremes

State Highs State Lows

Community

WunderPhotos

Upload Photos

1,758,192 photos uploaded!

Nearby

Snow Depth

Station Depth Elevation
No new snow has been reported.

Earthquake Activity

City Distance Mag. Time & Date
No recent earthquake activity has been reported nearby.
Minimum magnitude displayed is 2.5.

Coastal Water Temperatures

Place Temperature
Fernandina Beach, FL 78.1 °F
Mayport (Bar Pilots Dock), FL 79.0 °F

Nearby Weather Stations